createdAt,value
2022-08-14T00:02:13.972Z,2.40
2022-08-14T00:04:44.984Z,2.60
2022-08-14T00:10:02.064Z,2.10
2022-08-14T00:12:33.900Z,2.00
2022-08-14T00:15:29.977Z,2.10
2022-08-14T00:18:09.087Z,2.20
2022-08-14T00:20:43.197Z,2.40
2022-08-14T00:23:16.709Z,2.40
2022-08-14T00:25:59.010Z,2.10
2022-08-14T00:28:35.633Z,1.80
2022-08-14T00:31:05.136Z,2.00
2022-08-14T00:33:52.211Z,1.80
2022-08-14T00:36:37.318Z,1.80
2022-08-14T00:39:14.908Z,2.30
2022-08-14T00:41:47.309Z,2.00
2022-08-14T00:44:14.722Z,1.60
2022-08-14T00:46:48.836Z,1.90
2022-08-14T00:49:17.491Z,1.70
2022-08-14T00:51:48.146Z,2.30
2022-08-14T00:54:21.346Z,2.00
2022-08-14T00:56:55.065Z,2.20
2022-08-14T00:59:27.670Z,2.20
2022-08-14T01:01:58.992Z,2.00
2022-08-14T01:04:50.843Z,2.00
2022-08-14T01:07:20.759Z,1.90
2022-08-14T01:09:55.249Z,1.90
2022-08-14T01:12:26.568Z,1.80
2022-08-14T01:15:02.045Z,1.90
2022-08-14T01:17:52.090Z,1.70
2022-08-14T01:20:41.027Z,2.00
2022-08-14T01:23:16.337Z,1.70
2022-08-14T01:25:51.227Z,1.80
2022-08-14T01:28:47.355Z,2.00
2022-08-14T01:31:15.841Z,1.60
2022-08-14T01:33:59.617Z,1.70
2022-08-14T01:36:37.602Z,1.90
2022-08-14T01:39:14.672Z,1.70
2022-08-14T01:41:48.531Z,1.80
2022-08-14T01:44:32.528Z,1.80
2022-08-14T01:47:11.910Z,1.70
2022-08-14T01:49:46.074Z,1.90
2022-08-14T01:52:34.661Z,1.80
2022-08-14T01:55:14.845Z,1.80
2022-08-14T01:58:00.664Z,1.70
2022-08-14T02:00:36.408Z,1.90
2022-08-14T02:03:05.905Z,1.60
2022-08-14T02:05:38.176Z,2.00
2022-08-14T02:08:09.990Z,1.80
2022-08-14T02:10:46.643Z,1.90
2022-08-14T02:13:18.532Z,2.10
2022-08-14T02:15:48.594Z,1.60
2022-08-14T02:18:18.123Z,1.80
2022-08-14T02:20:47.567Z,1.60
2022-08-14T02:23:15.870Z,1.90
2022-08-14T02:25:54.691Z,1.70
2022-08-14T02:28:57.547Z,1.70
2022-08-14T02:31:11.707Z,2.00
2022-08-14T02:33:42.541Z,1.90
2022-08-14T02:37:02.584Z,2.00
2022-08-14T02:38:58.448Z,1.70
2022-08-14T02:41:28.612Z,1.80
2022-08-14T02:44:00.910Z,2.10
2022-08-14T02:46:32.284Z,1.90
2022-08-14T02:49:03.871Z,1.70
2022-08-14T02:51:37.041Z,1.80
2022-08-14T02:54:09.257Z,1.80
2022-08-14T02:57:39.340Z,1.70
2022-08-14T02:59:28.987Z,1.90
2022-08-14T03:02:02.690Z,2.30
2022-08-14T03:04:30.210Z,1.60
2022-08-14T03:07:07.842Z,2.10
2022-08-14T03:10:26.628Z,1.60
2022-08-14T03:12:31.662Z,1.70
2022-08-14T03:15:16.147Z,1.80
2022-08-14T03:17:57.092Z,1.90
2022-08-14T03:20:29.563Z,1.80
2022-08-14T03:23:03.224Z,1.90
2022-08-14T03:25:33.231Z,2.00
2022-08-14T03:28:08.491Z,1.90
2022-08-14T03:30:42.261Z,2.20
2022-08-14T03:33:11.979Z,1.70
2022-08-14T03:36:05.575Z,1.80
2022-08-14T03:39:13.131Z,1.80
2022-08-14T03:41:24.244Z,1.80
2022-08-14T03:44:01.104Z,1.90
2022-08-14T03:46:52.573Z,1.90
2022-08-14T03:49:24.315Z,1.90
2022-08-14T03:51:57.510Z,1.80
2022-08-14T03:54:25.233Z,1.80
2022-08-14T03:56:53.877Z,1.80
2022-08-14T03:59:21.374Z,1.70
2022-08-14T04:01:49.183Z,1.80
2022-08-14T04:04:25.009Z,2.00
2022-08-14T04:06:52.746Z,1.80
2022-08-14T04:09:19.489Z,1.70
2022-08-14T04:11:46.815Z,1.90
2022-08-14T04:14:15.226Z,1.90
2022-08-14T04:16:45.693Z,2.00
2022-08-14T04:19:12.515Z,2.30
2022-08-14T04:21:53.032Z,1.80
2022-08-14T04:24:26.227Z,1.70
2022-08-14T04:26:55.726Z,1.80
2022-08-14T04:29:22.493Z,1.90
2022-08-14T04:32:58.331Z,1.80
2022-08-14T04:34:39.611Z,2.00
2022-08-14T04:37:27.000Z,2.00
2022-08-14T04:40:15.114Z,1.80
2022-08-14T04:43:01.126Z,2.00
2022-08-14T04:45:40.205Z,2.10
2022-08-14T04:48:39.048Z,1.70
2022-08-14T04:51:09.968Z,1.90
2022-08-14T04:53:43.484Z,1.90
2022-08-14T04:56:31.712Z,2.10
2022-08-14T04:59:09.521Z,1.90
2022-08-14T05:01:47.907Z,1.90
2022-08-14T05:04:21.513Z,2.00
2022-08-14T05:06:54.172Z,2.10
2022-08-14T05:09:28.953Z,2.00
2022-08-14T05:11:56.263Z,2.10
2022-08-14T05:14:53.511Z,2.00
2022-08-14T05:17:25.161Z,2.00
2022-08-14T05:21:55.567Z,1.80
2022-08-14T05:22:52.045Z,2.00
2022-08-14T05:25:22.942Z,2.10
2022-08-14T05:27:50.123Z,1.90
2022-08-14T05:30:22.153Z,1.80
2022-08-14T05:32:48.912Z,2.00
2022-08-14T05:35:15.719Z,2.10
2022-08-14T05:37:46.113Z,1.80
2022-08-14T05:40:13.090Z,2.10
2022-08-14T05:42:39.855Z,2.10
2022-08-14T05:45:11.271Z,2.20
2022-08-14T05:47:41.427Z,1.90
2022-08-14T05:50:17.399Z,2.10
2022-08-14T05:52:48.726Z,2.00
2022-08-14T05:55:22.023Z,1.90
2022-08-14T05:57:52.650Z,1.90
2022-08-14T06:00:29.346Z,1.80
2022-08-14T06:03:04.154Z,1.70
2022-08-14T06:05:33.939Z,2.10
2022-08-14T06:08:02.998Z,2.00
2022-08-14T06:10:36.069Z,1.90
2022-08-14T06:13:03.442Z,2.00
2022-08-14T06:15:30.774Z,1.90
2022-08-14T06:17:59.789Z,2.10
2022-08-14T06:20:28.605Z,1.90
2022-08-14T06:22:58.240Z,1.80
2022-08-14T06:25:27.108Z,2.20
2022-08-14T06:27:55.441Z,1.90
2022-08-14T06:30:46.052Z,2.20
2022-08-14T06:33:15.698Z,2.00
2022-08-14T06:35:43.717Z,2.00
2022-08-14T06:38:17.700Z,2.30
2022-08-14T06:43:15.529Z,2.00
2022-08-14T06:45:50.190Z,2.00
2022-08-14T06:48:24.320Z,2.10
2022-08-14T06:50:53.929Z,1.70
2022-08-14T06:53:22.308Z,2.10
2022-08-14T06:56:01.092Z,2.00
2022-08-14T06:58:30.725Z,1.70
2022-08-14T07:01:25.062Z,2.00
2022-08-14T07:04:23.249Z,2.00
2022-08-14T07:06:55.844Z,2.20
2022-08-14T07:09:28.160Z,2.30
2022-08-14T07:12:08.999Z,1.90
2022-08-14T07:15:01.184Z,2.20
2022-08-14T07:17:28.565Z,1.90
2022-08-14T07:19:58.844Z,2.50
2022-08-14T07:22:32.693Z,1.90
2022-08-14T07:25:13.314Z,1.80
2022-08-14T07:27:42.859Z,2.60
2022-08-14T07:30:33.476Z,1.80
2022-08-14T07:32:58.517Z,2.10
2022-08-14T07:35:37.383Z,2.20
2022-08-14T07:38:20.000Z,2.60
2022-08-14T07:40:52.912Z,1.90
2022-08-14T07:43:21.636Z,2.00
2022-08-14T07:45:50.698Z,1.90
2022-08-14T07:48:17.976Z,2.60
2022-08-14T07:50:55.301Z,2.20
2022-08-14T07:53:29.579Z,2.30
2022-08-14T07:56:21.952Z,2.30
2022-08-14T07:58:51.714Z,2.10
2022-08-14T08:01:19.565Z,2.10
2022-08-14T08:03:51.928Z,2.10
2022-08-14T08:06:27.907Z,1.70
2022-08-14T08:09:02.796Z,2.00
2022-08-14T08:11:37.429Z,1.80
2022-08-14T08:14:06.663Z,1.80
2022-08-14T08:16:37.926Z,1.90
2022-08-14T08:19:12.543Z,2.00
2022-08-14T08:21:39.976Z,1.90
2022-08-14T08:24:10.987Z,2.30
2022-08-14T08:26:39.413Z,2.00
2022-08-14T08:29:07.381Z,1.80
2022-08-14T08:31:49.179Z,2.20
2022-08-14T08:34:20.394Z,2.00
2022-08-14T08:36:51.135Z,1.80
2022-08-14T08:39:30.828Z,2.00
2022-08-14T08:42:05.645Z,2.80
2022-08-14T08:44:36.432Z,2.50
2022-08-14T08:47:07.518Z,2.80
2022-08-14T08:49:52.676Z,2.60
2022-08-14T08:52:31.598Z,2.80
2022-08-14T08:55:01.113Z,2.80
2022-08-14T08:57:36.950Z,3.00
2022-08-14T09:00:25.805Z,3.10
2022-08-14T09:03:10.007Z,3.20
2022-08-14T09:05:50.317Z,3.10
2022-08-14T09:08:32.683Z,3.10
2022-08-14T09:11:19.735Z,3.00
2022-08-14T09:13:53.203Z,3.10
2022-08-14T09:16:25.328Z,3.00
2022-08-14T09:18:55.380Z,3.00
2022-08-14T09:21:24.108Z,2.70
2022-08-14T09:24:29.501Z,2.60
2022-08-14T09:26:48.885Z,2.50
2022-08-14T09:29:22.905Z,2.70
2022-08-14T09:31:59.837Z,2.40
2022-08-14T09:35:01.123Z,2.80
2022-08-14T09:38:00.017Z,2.50
2022-08-14T09:40:54.279Z,2.70
2022-08-14T09:43:46.575Z,2.50
2022-08-14T09:46:17.007Z,2.60
2022-08-14T09:49:01.923Z,2.80
2022-08-14T09:51:32.895Z,2.50
2022-08-14T09:54:18.579Z,2.40
2022-08-14T09:56:56.868Z,2.30
2022-08-14T09:59:24.916Z,2.50
2022-08-14T10:01:53.443Z,2.60
2022-08-14T10:04:34.356Z,2.60
2022-08-14T10:07:04.618Z,2.50
2022-08-14T10:09:34.851Z,2.90
2022-08-14T10:12:04.644Z,2.60
2022-08-14T10:17:06.270Z,2.40
2022-08-14T10:19:36.305Z,2.90
2022-08-14T10:23:12.881Z,2.30
2022-08-14T10:24:55.415Z,2.60
2022-08-14T10:27:24.548Z,2.50
2022-08-14T10:29:59.188Z,2.40
2022-08-14T10:32:36.369Z,2.70
2022-08-14T10:35:13.576Z,2.50
2022-08-14T10:37:50.251Z,2.30
2022-08-14T10:40:37.677Z,2.30
2022-08-14T10:43:27.026Z,2.40
2022-08-14T10:46:21.889Z,2.40
2022-08-14T10:49:04.916Z,2.10
2022-08-14T10:51:39.757Z,2.80
2022-08-14T10:54:35.296Z,2.40
2022-08-14T10:57:10.869Z,2.40
2022-08-14T10:59:43.378Z,2.40
2022-08-14T11:02:45.093Z,2.40
2022-08-14T11:05:22.867Z,2.30
2022-08-14T11:08:00.183Z,2.70
2022-08-14T11:10:59.961Z,2.40
2022-08-14T11:16:00.667Z,2.50
2022-08-14T11:18:35.776Z,2.40
2022-08-14T11:21:08.432Z,2.50
2022-08-14T11:23:39.810Z,2.40
2022-08-14T11:26:08.763Z,2.80
2022-08-14T11:28:48.116Z,2.70
2022-08-14T11:31:23.390Z,2.90
2022-08-14T11:33:59.532Z,2.80
2022-08-14T11:37:02.773Z,2.80
2022-08-14T11:39:33.793Z,2.80
2022-08-14T11:42:57.849Z,3.30
2022-08-14T11:45:10.970Z,3.30
2022-08-14T11:48:13.555Z,3.00
2022-08-14T11:50:37.776Z,2.70
2022-08-14T11:53:19.645Z,2.90
2022-08-14T11:55:48.929Z,2.90
2022-08-14T12:01:05.881Z,3.30
2022-08-14T12:03:51.233Z,3.40
2022-08-14T12:06:27.807Z,3.80
2022-08-14T12:09:00.283Z,3.50
2022-08-14T12:11:43.446Z,3.80
2022-08-14T12:14:29.221Z,3.30
2022-08-14T12:17:12.454Z,3.50
2022-08-14T12:20:07.203Z,3.50
2022-08-14T12:22:42.195Z,3.20
2022-08-14T12:25:21.804Z,3.80
2022-08-14T12:27:59.515Z,3.40
2022-08-14T12:30:39.518Z,3.30
2022-08-14T12:33:33.293Z,3.70
2022-08-14T12:36:09.465Z,3.40
2022-08-14T12:38:44.086Z,3.30
2022-08-14T12:41:21.190Z,3.20
2022-08-14T12:44:02.759Z,3.00
2022-08-14T12:46:43.655Z,3.60
2022-08-14T12:49:16.678Z,2.80
2022-08-14T12:51:56.403Z,3.40
2022-08-14T12:54:27.701Z,2.60
2022-08-14T12:57:18.746Z,2.70
2022-08-14T12:59:49.269Z,3.50
2022-08-14T13:02:26.365Z,4.10
2022-08-14T13:04:56.718Z,3.30
2022-08-14T13:07:32.065Z,3.00
2022-08-14T13:10:00.306Z,3.20
2022-08-14T13:12:31.888Z,3.20
2022-08-14T13:15:09.023Z,3.90
2022-08-14T13:17:57.453Z,3.20
2022-08-14T13:20:28.425Z,3.20
2022-08-14T13:23:01.727Z,2.80
2022-08-14T13:25:28.765Z,3.10
2022-08-14T13:27:58.750Z,3.20
2022-08-14T13:30:28.228Z,3.10
2022-08-14T13:32:57.764Z,3.60
2022-08-14T13:35:25.878Z,3.40
2022-08-14T13:37:54.095Z,3.60
2022-08-14T13:40:26.714Z,3.10
2022-08-14T13:42:57.015Z,3.70
2022-08-14T13:45:34.126Z,3.30
2022-08-14T13:48:27.674Z,3.20
2022-08-14T13:51:03.895Z,3.40
2022-08-14T13:53:38.062Z,3.80
2022-08-14T13:56:14.735Z,4.10
2022-08-14T13:59:00.628Z,4.00
2022-08-14T14:01:29.101Z,3.90
2022-08-14T14:03:56.432Z,3.90
2022-08-14T14:06:24.867Z,4.40
2022-08-14T14:08:56.599Z,3.90
2022-08-14T14:11:26.538Z,4.20
2022-08-14T14:13:59.671Z,4.50
2022-08-14T14:16:30.678Z,3.70
2022-08-14T14:19:08.747Z,3.70
2022-08-14T14:21:38.087Z,4.10
2022-08-14T14:24:08.600Z,4.00
2022-08-14T14:26:48.029Z,4.70
2022-08-14T14:29:24.184Z,5.00
2022-08-14T14:31:53.651Z,4.10
2022-08-14T14:34:30.087Z,4.90
2022-08-14T14:37:03.202Z,5.40
2022-08-14T14:39:37.861Z,5.20
2022-08-14T14:42:29.400Z,5.00
2022-08-14T14:45:13.939Z,5.30
2022-08-14T14:47:46.061Z,5.20
2022-08-14T14:50:13.741Z,5.10
2022-08-14T14:52:43.994Z,5.60
2022-08-14T14:55:12.449Z,5.40
2022-08-14T14:57:40.389Z,5.10
2022-08-14T15:00:19.353Z,5.60
2022-08-14T15:02:53.125Z,5.50
2022-08-14T15:05:28.422Z,5.70
2022-08-14T15:10:27.293Z,5.10
2022-08-14T15:13:03.653Z,5.10
2022-08-14T15:15:33.109Z,5.30
2022-08-14T15:18:00.088Z,5.00
2022-08-14T15:20:30.668Z,4.90
2022-08-14T15:23:11.780Z,5.10
2022-08-14T15:25:53.017Z,4.60
2022-08-14T15:28:21.015Z,4.50
2022-08-14T15:30:51.038Z,4.10
2022-08-14T15:34:13.414Z,4.30
2022-08-14T15:36:30.757Z,4.00
2022-08-14T15:38:58.502Z,4.10
2022-08-14T15:41:25.356Z,3.80
2022-08-14T15:43:53.070Z,3.50
2022-08-14T15:49:08.518Z,3.90
2022-08-14T15:51:36.492Z,3.80
2022-08-14T15:54:11.456Z,3.70
2022-08-14T15:56:42.998Z,3.70
2022-08-14T15:59:10.344Z,3.90
2022-08-14T16:01:53.708Z,4.40
2022-08-14T16:04:22.209Z,4.40
2022-08-14T16:06:55.546Z,4.60
2022-08-14T16:09:22.776Z,4.00
2022-08-14T16:11:50.743Z,3.50
2022-08-14T16:14:21.788Z,3.70
2022-08-14T16:17:00.433Z,4.10
2022-08-14T16:19:32.664Z,3.50
2022-08-14T16:22:58.520Z,3.50
2022-08-14T16:25:03.386Z,5.30
2022-08-14T16:27:39.343Z,3.90
2022-08-14T16:30:24.571Z,3.90
2022-08-14T16:32:57.959Z,4.30
2022-08-14T16:35:42.942Z,4.30
2022-08-14T16:38:29.323Z,4.60
2022-08-14T16:41:35.709Z,3.90
2022-08-14T16:44:13.758Z,4.20
2022-08-14T16:46:55.245Z,3.90
2022-08-14T16:49:25.497Z,4.40
2022-08-14T16:52:25.524Z,4.80
2022-08-14T16:55:07.780Z,4.50
2022-08-14T16:57:58.496Z,4.00
2022-08-14T17:00:43.935Z,4.10
2022-08-14T17:03:12.636Z,5.10
2022-08-14T17:05:43.835Z,4.50
2022-08-14T17:08:32.613Z,3.90
2022-08-14T17:11:10.782Z,4.60
2022-08-14T17:13:58.155Z,4.20
2022-08-14T17:16:35.780Z,4.70
2022-08-14T17:19:13.677Z,4.10
2022-08-14T17:21:47.518Z,4.20
2022-08-14T17:24:55.769Z,4.10
2022-08-14T17:27:07.360Z,4.00
2022-08-14T17:29:54.654Z,3.90
2022-08-14T17:32:44.495Z,3.70
2022-08-14T17:35:57.324Z,2.60
2022-08-14T17:38:33.578Z,2.90
2022-08-14T17:41:32.585Z,2.80
2022-08-14T17:44:34.446Z,3.20
2022-08-14T17:47:18.341Z,3.10
2022-08-14T17:49:52.297Z,1.90
2022-08-14T17:52:34.115Z,3.30
2022-08-14T17:55:04.171Z,2.10
2022-08-14T17:57:35.560Z,2.10
2022-08-14T18:00:14.637Z,2.60
2022-08-14T18:02:50.766Z,2.50
2022-08-14T18:05:23.712Z,2.70
2022-08-14T18:08:33.335Z,2.60
2022-08-14T18:10:56.642Z,2.90
2022-08-14T18:13:50.218Z,2.60
2022-08-14T18:16:19.963Z,3.30
2022-08-14T18:18:49.028Z,3.40
2022-08-14T18:21:23.494Z,3.90
2022-08-14T18:23:52.220Z,3.50
2022-08-14T18:26:37.656Z,2.90
2022-08-14T18:29:14.671Z,2.70
2022-08-14T18:31:43.904Z,5.20
2022-08-14T18:34:30.730Z,3.60
2022-08-14T18:37:03.689Z,3.60
2022-08-14T18:40:01.120Z,4.00
2022-08-14T18:42:34.857Z,3.70
2022-08-14T18:45:02.174Z,4.00
2022-08-14T18:48:06.429Z,4.00
2022-08-14T18:50:31.599Z,3.90
2022-08-14T18:53:09.073Z,4.10
2022-08-14T18:55:37.495Z,3.50
2022-08-14T18:58:30.430Z,3.70
2022-08-14T19:01:04.453Z,4.60
2022-08-14T19:03:36.457Z,5.20
2022-08-14T19:06:09.162Z,4.30
2022-08-14T19:08:48.718Z,4.60
2022-08-14T19:11:37.842Z,3.30
2022-08-14T19:14:06.491Z,4.30
2022-08-14T19:16:48.291Z,3.60
2022-08-14T19:19:24.049Z,3.30
2022-08-14T19:21:57.387Z,3.40
2022-08-14T19:24:33.427Z,3.80
2022-08-14T19:27:24.575Z,3.30
2022-08-14T19:30:19.603Z,3.80
2022-08-14T19:32:55.771Z,3.60
2022-08-14T19:35:43.583Z,3.10
2022-08-14T19:38:54.043Z,3.50
2022-08-14T19:41:30.017Z,3.50
2022-08-14T19:44:19.251Z,3.90
2022-08-14T19:47:00.088Z,3.20
2022-08-14T19:50:07.802Z,3.30
2022-08-14T19:52:37.335Z,3.60
2022-08-14T19:55:19.007Z,4.00
2022-08-14T19:57:57.996Z,4.10
2022-08-14T20:00:29.059Z,4.40
2022-08-14T20:05:29.397Z,5.30
2022-08-14T20:10:59.682Z,5.10
2022-08-14T20:11:04.171Z,4.90
2022-08-14T20:13:40.843Z,4.90
2022-08-14T20:18:57.548Z,4.40
2022-08-14T20:21:34.206Z,4.90
2022-08-14T20:24:42.667Z,5.00
2022-08-14T20:27:38.916Z,5.10
2022-08-14T20:30:33.644Z,4.90
2022-08-14T20:33:07.404Z,6.00
2022-08-14T20:35:42.829Z,5.10
2022-08-14T20:38:33.290Z,5.30
2022-08-14T20:41:06.484Z,5.30
2022-08-14T20:43:58.689Z,5.50
2022-08-14T20:46:30.349Z,5.40
2022-08-14T20:49:02.090Z,5.80
2022-08-14T20:51:43.610Z,5.70
2022-08-14T20:54:33.979Z,5.50
2022-08-14T20:57:08.631Z,5.40
2022-08-14T20:59:43.510Z,5.60
2022-08-14T21:02:29.430Z,6.40
2022-08-14T21:05:01.621Z,5.30
2022-08-14T21:07:35.391Z,6.00
2022-08-14T21:10:33.565Z,5.90
2022-08-14T21:13:25.555Z,6.00
2022-08-14T21:15:57.524Z,6.10
2022-08-14T21:18:32.315Z,5.90
2022-08-14T21:21:07.703Z,5.80
2022-08-14T21:23:54.945Z,5.20
2022-08-14T21:26:33.364Z,5.30
2022-08-14T21:29:20.912Z,5.40
2022-08-14T21:31:55.834Z,5.20
2022-08-14T21:34:31.095Z,5.90
2022-08-14T21:37:07.850Z,5.70
2022-08-14T21:39:37.654Z,6.60
2022-08-14T21:42:05.644Z,7.80
2022-08-14T21:44:42.991Z,6.80
2022-08-14T21:47:12.762Z,7.40
2022-08-14T21:49:43.157Z,7.70
2022-08-14T21:52:51.280Z,7.70
2022-08-14T21:55:12.480Z,8.00
2022-08-14T21:58:51.156Z,8.30
2022-08-14T22:00:39.700Z,8.50
2022-08-14T22:03:18.562Z,8.40
2022-08-14T22:05:52.542Z,9.10
2022-08-14T22:08:22.475Z,8.70
2022-08-14T22:10:54.808Z,9.50
2022-08-14T22:13:25.929Z,8.90
2022-08-14T22:15:59.491Z,9.10
2022-08-14T22:18:26.646Z,9.30
2022-08-14T22:20:56.898Z,9.00
2022-08-14T22:23:24.950Z,9.00
2022-08-14T22:25:54.478Z,10.00
2022-08-14T22:28:33.091Z,9.40
2022-08-14T22:31:09.876Z,9.60
2022-08-14T22:33:39.570Z,9.30
2022-08-14T22:36:26.997Z,9.20
2022-08-14T22:39:01.395Z,9.00
2022-08-14T22:41:32.651Z,10.10
2022-08-14T22:44:10.876Z,9.90
2022-08-14T22:46:38.714Z,9.40
2022-08-14T22:49:15.478Z,10.00
2022-08-14T22:51:54.275Z,9.00
2022-08-14T22:54:52.418Z,9.20
2022-08-14T22:57:11.849Z,10.40
2022-08-14T22:59:39.017Z,10.00
2022-08-14T23:02:11.812Z,9.90
2022-08-14T23:04:42.570Z,9.70
2022-08-14T23:09:00.190Z,9.50
2022-08-14T23:10:32.942Z,9.50
2022-08-14T23:13:03.622Z,9.50
2022-08-14T23:15:33.373Z,9.40
2022-08-14T23:18:03.386Z,9.80
2022-08-14T23:20:33.036Z,8.80
2022-08-14T23:22:59.927Z,9.60
2022-08-14T23:25:57.838Z,10.10
2022-08-14T23:28:34.820Z,10.10
2022-08-14T23:31:17.422Z,9.90
2022-08-14T23:34:07.162Z,9.50
2022-08-14T23:36:54.538Z,9.70
2022-08-14T23:39:32.931Z,9.80
2022-08-14T23:42:06.030Z,9.20
2022-08-14T23:44:36.953Z,10.00
2022-08-14T23:47:11.977Z,9.60
2022-08-14T23:50:00.390Z,9.70
2022-08-14T23:52:51.279Z,9.90
2022-08-14T23:55:25.948Z,9.60
2022-08-14T23:57:57.504Z,10.00
